createdAt,value
2018-07-20T00:01:34.484Z,18.10
2018-07-20T00:04:02.808Z,18.10
2018-07-20T00:06:31.169Z,18.10
2018-07-20T00:08:59.501Z,18.10
2018-07-20T00:11:27.867Z,18.10
2018-07-20T00:13:56.187Z,18.00
2018-07-20T00:16:24.540Z,18.00
2018-07-20T00:18:52.880Z,17.90
2018-07-20T00:21:21.257Z,18.00
2018-07-20T00:23:49.617Z,17.90
2018-07-20T00:26:17.984Z,18.00
2018-07-20T00:28:46.317Z,18.00
2018-07-20T00:31:14.695Z,18.00
2018-07-20T00:33:43.057Z,18.00
2018-07-20T00:36:11.427Z,18.10
2018-07-20T00:38:39.775Z,18.10
2018-07-20T00:41:08.291Z,18.10
2018-07-20T00:43:36.608Z,18.10
2018-07-20T00:46:04.980Z,18.10
2018-07-20T00:48:33.292Z,18.10
2018-07-20T00:51:01.704Z,18.10
2018-07-20T00:53:30.023Z,18.10
2018-07-20T00:55:58.377Z,18.00
2018-07-20T00:58:26.708Z,18.00
2018-07-20T01:00:57.114Z,17.90
2018-07-20T01:03:25.464Z,17.90
2018-07-20T01:05:53.836Z,17.90
2018-07-20T01:08:22.186Z,17.90
2018-07-20T01:10:50.556Z,17.80
2018-07-20T01:13:18.882Z,17.80
2018-07-20T01:15:47.250Z,17.80
2018-07-20T01:18:15.584Z,17.80
2018-07-20T01:20:43.993Z,17.80
2018-07-20T01:25:40.422Z,17.70
2018-07-20T01:28:08.795Z,17.70
2018-07-20T01:30:37.144Z,17.60
2018-07-20T01:33:05.535Z,17.50
2018-07-20T01:35:33.863Z,17.50
2018-07-20T01:40:30.301Z,17.40
2018-07-20T01:42:58.653Z,17.30
2018-07-20T01:45:26.972Z,17.20
2018-07-20T01:47:55.336Z,17.10
2018-07-20T01:50:23.668Z,17.00
2018-07-20T01:52:52.031Z,17.00
2018-07-20T01:55:20.343Z,16.90
2018-07-20T01:57:48.693Z,16.80
2018-07-20T02:00:17.005Z,16.70
2018-07-20T02:02:45.351Z,16.70
2018-07-20T02:05:13.688Z,16.60
2018-07-20T02:07:42.063Z,16.60
2018-07-20T02:10:10.390Z,16.50
2018-07-20T02:12:38.736Z,16.50
2018-07-20T02:15:07.299Z,16.40
2018-07-20T02:17:35.660Z,16.40
2018-07-20T02:20:04.204Z,16.40
2018-07-20T02:22:32.643Z,16.30
2018-07-20T02:25:00.977Z,16.30
2018-07-20T02:27:29.339Z,16.30
2018-07-20T02:32:25.800Z,16.20
2018-07-20T02:34:54.128Z,16.10
2018-07-20T02:37:22.522Z,16.00
2018-07-20T02:39:50.848Z,16.00
2018-07-20T02:42:19.212Z,15.90
2018-07-20T02:44:47.552Z,16.00
2018-07-20T02:47:15.904Z,16.00
2018-07-20T02:49:44.217Z,15.90
2018-07-20T02:52:12.580Z,16.00
2018-07-20T02:54:40.905Z,15.90
2018-07-20T02:57:09.269Z,15.80
2018-07-20T02:59:37.632Z,15.80
2018-07-20T03:02:12.548Z,15.80
2018-07-20T03:04:40.915Z,15.70
2018-07-20T03:07:09.246Z,15.70
2018-07-20T03:09:37.632Z,15.60
2018-07-20T03:14:34.045Z,15.50
2018-07-20T03:17:02.377Z,15.50
2018-07-20T03:19:30.748Z,15.40
2018-07-20T03:21:59.069Z,15.40
2018-07-20T03:24:27.441Z,15.30
2018-07-20T03:26:55.760Z,15.40
2018-07-20T03:29:24.195Z,15.40
2018-07-20T03:31:52.581Z,15.40
2018-07-20T03:34:20.939Z,15.40
2018-07-20T03:36:49.253Z,15.40
2018-07-20T03:39:17.604Z,15.40
2018-07-20T03:41:45.939Z,15.50
2018-07-20T03:44:14.382Z,15.50
2018-07-20T03:46:42.729Z,15.50
2018-07-20T03:49:11.073Z,15.50
2018-07-20T03:51:39.392Z,15.60
2018-07-20T03:54:07.772Z,15.50
2018-07-20T03:56:36.099Z,15.50
2018-07-20T03:59:04.459Z,15.50
2018-07-20T04:01:32.832Z,15.50
2018-07-20T04:04:01.205Z,15.60
2018-07-20T04:06:29.524Z,15.60
2018-07-20T04:08:57.879Z,15.60
2018-07-20T04:11:26.208Z,15.60
2018-07-20T04:16:22.608Z,15.70
2018-07-20T04:18:50.962Z,15.70
2018-07-20T04:21:19.314Z,15.70
2018-07-20T04:26:15.791Z,15.90
2018-07-20T04:28:44.159Z,15.90
2018-07-20T04:31:12.503Z,16.00
2018-07-20T04:33:40.812Z,16.10
2018-07-20T04:38:37.208Z,16.20
2018-07-20T04:41:05.579Z,16.30
2018-07-20T04:43:33.892Z,16.40
2018-07-20T04:46:02.712Z,16.40
2018-07-20T04:50:59.160Z,16.60
2018-07-20T04:53:27.485Z,16.70
2018-07-20T04:55:55.850Z,16.90
2018-07-20T04:58:24.177Z,16.90
2018-07-20T05:00:52.557Z,17.00
2018-07-20T05:03:20.911Z,17.10
2018-07-20T05:05:49.323Z,17.20
2018-07-20T05:08:17.608Z,17.30
2018-07-20T05:10:45.972Z,17.40
2018-07-20T05:13:14.299Z,17.50
2018-07-20T05:15:42.674Z,17.60
2018-07-20T05:18:11.008Z,17.60
2018-07-20T05:20:39.389Z,17.60
2018-07-20T05:23:07.715Z,17.60
2018-07-20T05:25:36.121Z,17.60
2018-07-20T05:28:04.451Z,17.60
2018-07-20T05:33:00.850Z,17.60
2018-07-20T05:35:29.204Z,17.60
2018-07-20T05:37:57.536Z,17.60
2018-07-20T05:40:25.908Z,17.60
2018-07-20T05:42:54.568Z,17.60
2018-07-20T05:45:22.929Z,17.70
2018-07-20T05:47:51.263Z,17.80
2018-07-20T05:50:19.624Z,18.10
2018-07-20T05:52:48.951Z,18.40
2018-07-20T05:55:18.405Z,18.60
2018-07-20T05:57:46.785Z,18.80
2018-07-20T06:00:15.193Z,19.00
2018-07-20T06:02:43.546Z,19.30
2018-07-20T06:05:15.896Z,19.60
2018-07-20T06:07:44.280Z,19.80
2018-07-20T06:10:12.689Z,20.00
2018-07-20T06:12:41.020Z,20.20
2018-07-20T06:17:37.481Z,20.40
2018-07-20T06:20:07.308Z,20.50
2018-07-20T06:22:35.707Z,20.50
2018-07-20T06:25:04.335Z,20.60
2018-07-20T06:27:32.684Z,20.80
2018-07-20T06:30:01.292Z,21.00
2018-07-20T06:32:29.673Z,21.30
2018-07-20T06:34:58.001Z,21.40
2018-07-20T06:37:27.249Z,21.60
2018-07-20T06:39:55.579Z,21.70
2018-07-20T06:42:24.052Z,21.70
2018-07-20T06:44:52.401Z,21.60
2018-07-20T06:47:20.776Z,21.50
2018-07-20T06:49:49.188Z,21.50
2018-07-20T06:54:45.635Z,21.40
2018-07-20T06:57:14.120Z,21.40
2018-07-20T06:59:42.444Z,21.60
2018-07-20T07:02:11.277Z,21.70
2018-07-20T07:04:39.644Z,21.90
2018-07-20T07:07:08.356Z,22.10
2018-07-20T07:09:36.717Z,22.30
2018-07-20T07:12:05.117Z,22.40
2018-07-20T07:14:33.463Z,22.50
2018-07-20T07:17:01.818Z,22.60
2018-07-20T07:19:30.263Z,22.80
2018-07-20T07:21:58.617Z,22.90
2018-07-20T07:24:26.972Z,23.00
2018-07-20T07:26:55.344Z,23.20
2018-07-20T07:29:23.661Z,23.20
2018-07-20T07:31:52.032Z,23.40
2018-07-20T07:36:48.451Z,23.50
2018-07-20T07:39:16.777Z,23.70
2018-07-20T07:41:45.160Z,23.80
2018-07-20T07:44:13.488Z,24.10
2018-07-20T07:46:41.856Z,24.20
2018-07-20T07:49:10.184Z,24.40
2018-07-20T07:51:38.564Z,24.50
2018-07-20T07:54:06.921Z,24.60
2018-07-20T07:56:35.292Z,24.80
2018-07-20T07:59:03.620Z,24.90
2018-07-20T08:01:31.999Z,25.10
2018-07-20T08:04:00.320Z,25.30
2018-07-20T08:06:28.782Z,25.50
2018-07-20T08:08:57.091Z,25.50
2018-07-20T08:11:25.464Z,25.60
2018-07-20T08:13:53.807Z,25.60
2018-07-20T08:16:22.187Z,25.70
2018-07-20T08:18:50.524Z,25.70
2018-07-20T08:21:18.908Z,25.80
2018-07-20T08:23:47.260Z,25.90
2018-07-20T08:26:15.632Z,25.90
2018-07-20T08:28:44.204Z,26.00
2018-07-20T08:31:12.811Z,26.00
2018-07-20T08:33:41.315Z,26.00
2018-07-20T08:36:10.405Z,26.10
2018-07-20T08:41:32.092Z,26.10
2018-07-20T08:44:01.960Z,26.30
2018-07-20T08:46:30.370Z,26.30
2018-07-20T08:48:58.736Z,26.40
2018-07-20T08:51:27.419Z,26.50
2018-07-20T08:53:55.844Z,26.70
2018-07-20T08:56:24.164Z,26.70
2018-07-20T08:58:52.557Z,26.80
2018-07-20T09:01:20.887Z,26.90
2018-07-20T09:03:49.250Z,27.10
2018-07-20T09:06:17.586Z,27.10
2018-07-20T09:08:45.948Z,27.00
2018-07-20T09:11:14.295Z,27.10
2018-07-20T09:13:42.741Z,27.20
2018-07-20T09:16:10.999Z,27.30
2018-07-20T09:18:39.363Z,27.30
2018-07-20T09:21:07.701Z,27.40
2018-07-20T09:26:04.130Z,27.60
2018-07-20T09:28:32.487Z,27.60
2018-07-20T09:31:00.823Z,27.50
2018-07-20T09:33:29.179Z,27.50
2018-07-20T09:35:57.536Z,27.60
2018-07-20T09:38:25.892Z,27.70
2018-07-20T09:40:54.213Z,27.70
2018-07-20T09:43:22.668Z,27.80
2018-07-20T09:45:51.176Z,27.80
2018-07-20T09:48:19.536Z,28.00
2018-07-20T09:50:47.871Z,28.20
2018-07-20T09:53:16.248Z,28.30
2018-07-20T09:55:44.582Z,28.40
2018-07-20T09:58:13.698Z,28.30
2018-07-20T10:00:48.108Z,28.30
2018-07-20T10:03:16.516Z,28.30
2018-07-20T10:05:45.167Z,28.40
2018-07-20T10:08:13.565Z,28.40
2018-07-20T10:10:41.932Z,28.30
2018-07-20T10:13:10.337Z,28.20
2018-07-20T10:15:38.652Z,28.10
2018-07-20T10:18:07.029Z,28.20
2018-07-20T10:20:35.349Z,28.10
2018-07-20T10:23:03.729Z,28.10
2018-07-20T10:25:32.654Z,28.20
2018-07-20T10:28:01.107Z,28.40
2018-07-20T10:30:29.503Z,28.50
2018-07-20T10:35:25.899Z,28.70
2018-07-20T10:37:54.325Z,28.80
2018-07-20T10:40:25.968Z,28.80
2018-07-20T10:42:55.001Z,28.90
2018-07-20T10:45:23.355Z,29.10
2018-07-20T10:47:51.693Z,29.20
2018-07-20T10:50:20.041Z,29.30
2018-07-20T10:52:48.356Z,29.40
2018-07-20T10:55:16.992Z,29.50
2018-07-20T10:57:45.352Z,29.60
2018-07-20T11:00:13.722Z,29.70
2018-07-20T11:02:42.049Z,29.80
2018-07-20T11:05:10.417Z,29.90
2018-07-20T11:07:38.724Z,29.90
2018-07-20T11:10:07.206Z,30.00
2018-07-20T11:12:35.736Z,30.00
2018-07-20T11:15:04.892Z,29.90
2018-07-20T11:17:33.248Z,29.80
2018-07-20T11:20:01.643Z,29.60
2018-07-20T11:22:29.967Z,29.60
2018-07-20T11:24:58.320Z,29.60
2018-07-20T11:27:26.657Z,29.60
2018-07-20T11:29:55.009Z,29.40
2018-07-20T11:32:23.325Z,29.20
2018-07-20T11:34:58.311Z,28.90
2018-07-20T11:37:26.641Z,28.80
2018-07-20T11:39:55.007Z,28.80
2018-07-20T11:44:58.009Z,28.80
2018-07-20T11:47:26.319Z,28.90
2018-07-20T11:49:54.671Z,29.00
2018-07-20T11:52:23.045Z,29.00
2018-07-20T11:54:51.396Z,29.00
2018-07-20T11:57:19.732Z,28.90
2018-07-20T11:59:48.092Z,28.90
2018-07-20T12:02:16.480Z,28.80
2018-07-20T12:04:44.859Z,28.80
2018-07-20T12:07:13.204Z,28.80
2018-07-20T12:12:09.618Z,28.80
2018-07-20T12:14:37.975Z,28.90
2018-07-20T12:17:06.320Z,29.00
2018-07-20T12:22:02.743Z,29.00
2018-07-20T12:24:31.119Z,29.00
2018-07-20T12:26:59.469Z,29.20
2018-07-20T12:29:27.891Z,29.20
2018-07-20T12:31:56.219Z,29.10
2018-07-20T12:34:24.575Z,29.00
2018-07-20T12:36:53.080Z,28.90
2018-07-20T12:39:21.448Z,28.70
2018-07-20T12:41:49.771Z,28.60
2018-07-20T12:44:18.144Z,28.50
2018-07-20T12:46:46.524Z,28.60
2018-07-20T12:49:14.840Z,28.60
2018-07-20T12:51:43.216Z,28.60
2018-07-20T12:54:11.547Z,28.70
2018-07-20T12:56:39.907Z,28.70
2018-07-20T12:59:08.495Z,28.90
2018-07-20T13:04:04.953Z,28.90
2018-07-20T13:06:33.331Z,28.90
2018-07-20T13:09:01.671Z,29.00
2018-07-20T13:11:30.045Z,29.00
2018-07-20T13:13:58.403Z,29.00
2018-07-20T13:16:26.776Z,29.00
2018-07-20T13:18:55.105Z,29.00
2018-07-20T13:21:23.468Z,29.00
2018-07-20T13:23:51.830Z,29.00
2018-07-20T13:26:20.234Z,29.00
2018-07-20T13:28:48.572Z,28.80
2018-07-20T13:31:28.225Z,28.70
2018-07-20T13:33:56.771Z,28.80
2018-07-20T13:36:25.141Z,28.60
2018-07-20T13:39:10.651Z,28.50
2018-07-20T13:41:39.828Z,28.50
2018-07-20T13:44:08.151Z,28.40
2018-07-20T13:46:36.520Z,28.40
2018-07-20T13:49:04.903Z,28.40
2018-07-20T13:51:33.263Z,28.40
2018-07-20T13:54:01.644Z,28.50
2018-07-20T13:56:33.264Z,28.60
2018-07-20T13:59:05.686Z,28.70
2018-07-20T14:01:34.072Z,28.70
2018-07-20T14:04:02.405Z,28.80
2018-07-20T14:06:30.777Z,28.90
2018-07-20T14:11:27.279Z,28.80
2018-07-20T14:13:55.637Z,28.80
2018-07-20T14:16:24.017Z,28.80
2018-07-20T14:18:52.384Z,28.80
2018-07-20T14:21:20.728Z,28.80
2018-07-20T14:23:49.059Z,28.80
2018-07-20T14:26:17.440Z,28.90
2018-07-20T14:28:45.779Z,28.80
2018-07-20T14:33:42.215Z,28.70
2018-07-20T14:36:10.600Z,28.70
2018-07-20T14:38:38.916Z,28.60
2018-07-20T14:41:07.312Z,28.50
2018-07-20T14:43:35.651Z,28.50
2018-07-20T14:46:04.081Z,28.40
2018-07-20T14:48:32.396Z,28.40
2018-07-20T14:51:00.773Z,28.40
2018-07-20T14:53:29.116Z,28.40
2018-07-20T14:55:57.481Z,28.50
2018-07-20T14:58:25.808Z,28.50
2018-07-20T15:00:54.159Z,28.50
2018-07-20T15:03:22.476Z,28.40
2018-07-20T15:05:52.280Z,28.30
2018-07-20T15:08:20.652Z,28.20
2018-07-20T15:10:49.175Z,28.10
2018-07-20T15:13:18.216Z,28.00
2018-07-20T15:15:46.548Z,27.80
2018-07-20T15:18:14.900Z,27.70
2018-07-20T15:20:43.236Z,27.60
2018-07-20T15:23:11.604Z,27.50
2018-07-20T15:25:39.935Z,27.30
2018-07-20T15:28:08.315Z,27.10
2018-07-20T15:30:36.638Z,26.60
2018-07-20T15:33:05.013Z,26.00
2018-07-20T15:35:33.363Z,25.20
2018-07-20T15:38:01.759Z,24.70
2018-07-20T15:40:30.095Z,24.20
2018-07-20T15:42:58.468Z,23.80
2018-07-20T15:45:26.825Z,23.60
2018-07-20T15:47:55.196Z,23.50
2018-07-20T15:50:23.508Z,23.30
2018-07-20T15:53:36.283Z,23.20
2018-07-20T15:55:20.239Z,23.00
2018-07-20T15:57:48.607Z,22.80
2018-07-20T16:00:16.935Z,22.80
2018-07-20T16:02:45.321Z,22.80
2018-07-20T16:05:13.667Z,22.80
2018-07-20T16:10:10.149Z,22.80
2018-07-20T16:12:38.507Z,22.80
2018-07-20T16:15:06.888Z,22.80
2018-07-20T16:17:35.251Z,22.80
2018-07-20T16:22:31.691Z,22.60
2018-07-20T16:25:00.046Z,22.60
2018-07-20T16:27:28.420Z,22.50
2018-07-20T16:29:56.763Z,22.40
2018-07-20T16:32:25.128Z,22.40
2018-07-20T16:34:53.455Z,22.40
2018-07-20T16:37:21.840Z,22.30
2018-07-20T16:39:50.175Z,22.20
2018-07-20T16:42:18.600Z,22.20
2018-07-20T16:44:46.932Z,22.10
2018-07-20T16:47:15.307Z,22.00
2018-07-20T16:49:43.660Z,21.90
2018-07-20T16:52:12.043Z,21.90
2018-07-20T16:54:40.471Z,21.80
2018-07-20T16:57:09.135Z,21.80
2018-07-20T16:59:37.483Z,21.80
2018-07-20T17:02:05.892Z,21.70
2018-07-20T17:04:34.255Z,21.60
2018-07-20T17:07:02.579Z,21.60
2018-07-20T17:09:30.948Z,21.40
2018-07-20T17:11:59.360Z,21.40
2018-07-20T17:14:27.719Z,21.30
2018-07-20T17:16:56.058Z,21.20
2018-07-20T17:19:24.487Z,21.10
2018-07-20T17:24:20.876Z,21.00
2018-07-20T17:26:49.204Z,21.00
2018-07-20T17:29:18.115Z,20.90
2018-07-20T17:31:46.528Z,20.90
2018-07-20T17:34:14.895Z,20.80
2018-07-20T17:36:43.224Z,20.80
2018-07-20T17:39:12.440Z,20.80
2018-07-20T17:41:40.836Z,20.70
2018-07-20T17:44:09.733Z,20.80
2018-07-20T17:46:38.057Z,20.70
2018-07-20T17:49:06.459Z,20.80
2018-07-20T17:51:34.876Z,20.80
2018-07-20T17:54:08.360Z,20.80
2018-07-20T17:56:36.676Z,20.80
2018-07-20T17:59:05.057Z,20.90
2018-07-20T18:01:34.244Z,20.90
2018-07-20T18:04:04.059Z,20.80
2018-07-20T18:06:32.388Z,20.80
2018-07-20T18:09:00.775Z,20.80
2018-07-20T18:11:29.128Z,20.80
2018-07-20T18:16:25.593Z,20.80
2018-07-20T18:18:53.948Z,20.80
2018-07-20T18:21:22.292Z,20.70
2018-07-20T18:23:50.975Z,20.70
2018-07-20T18:26:19.323Z,20.70
2018-07-20T18:28:47.677Z,20.60
2018-07-20T18:33:44.152Z,20.60
2018-07-20T18:36:12.531Z,20.50
2018-07-20T18:38:41.350Z,20.50
2018-07-20T18:41:09.664Z,20.50
2018-07-20T18:43:38.024Z,20.50
2018-07-20T18:46:06.420Z,20.40
2018-07-20T18:48:34.780Z,20.40
2018-07-20T18:51:03.104Z,20.40
2018-07-20T18:53:31.467Z,20.30
2018-07-20T18:55:59.835Z,20.30
2018-07-20T18:58:28.200Z,20.30
2018-07-20T19:00:56.766Z,20.30
2018-07-20T19:03:25.176Z,20.30
2018-07-20T19:05:53.494Z,20.20
2018-07-20T19:08:21.846Z,20.20
2018-07-20T19:10:50.210Z,20.20
2018-07-20T19:13:18.635Z,20.20
2018-07-20T19:15:47.023Z,20.10
2018-07-20T19:18:15.353Z,20.10
2018-07-20T19:20:43.778Z,20.10
2018-07-20T19:23:12.123Z,20.00
2018-07-20T19:28:08.626Z,20.00
2018-07-20T19:30:36.978Z,19.90
2018-07-20T19:33:05.425Z,19.90
2018-07-20T19:35:33.812Z,19.90
2018-07-20T19:38:02.144Z,19.90
2018-07-20T19:40:30.505Z,19.90
2018-07-20T19:42:58.843Z,19.80
2018-07-20T19:45:27.199Z,19.80
2018-07-20T19:47:55.532Z,19.70
2018-07-20T19:50:23.896Z,19.70
2018-07-20T19:52:52.224Z,19.70
2018-07-20T19:55:20.583Z,19.70
2018-07-20T19:57:48.908Z,19.60
2018-07-20T20:00:17.269Z,19.60
2018-07-20T20:02:45.687Z,19.60
2018-07-20T20:10:10.216Z,19.50
2018-07-20T20:12:38.626Z,19.50
2018-07-20T20:15:07.514Z,19.50
2018-07-20T20:17:35.887Z,19.50
2018-07-20T20:20:05.020Z,19.40
2018-07-20T20:22:33.428Z,19.40
2018-07-20T20:25:01.776Z,19.40
2018-07-20T20:27:30.088Z,19.30
2018-07-20T20:29:58.469Z,19.30
2018-07-20T20:32:26.784Z,19.20
2018-07-20T20:34:55.151Z,19.20
2018-07-20T20:39:51.579Z,19.10
2018-07-20T20:42:19.904Z,19.00
2018-07-20T20:44:48.239Z,19.00
2018-07-20T20:47:16.565Z,19.00
2018-07-20T20:49:44.920Z,19.00
2018-07-20T20:52:13.280Z,18.90
2018-07-20T20:54:41.668Z,18.90
2018-07-20T20:59:38.088Z,18.90
2018-07-20T21:02:06.423Z,18.80
2018-07-20T21:04:34.815Z,18.80
2018-07-20T21:07:03.188Z,18.80
2018-07-20T21:09:31.568Z,18.80
2018-07-20T21:12:00.004Z,18.80
2018-07-20T21:14:28.243Z,18.80
2018-07-20T21:16:56.630Z,18.80
2018-07-20T21:19:24.990Z,18.80
2018-07-20T21:21:53.375Z,18.70
2018-07-20T21:24:21.743Z,18.70
2018-07-20T21:26:50.096Z,18.70
2018-07-20T21:29:18.428Z,18.70
2018-07-20T21:31:46.788Z,18.70
2018-07-20T21:34:15.123Z,18.70
2018-07-20T21:36:43.479Z,18.70
2018-07-20T21:39:13.114Z,18.70
2018-07-20T21:41:42.336Z,18.70
2018-07-20T21:44:10.659Z,18.70
2018-07-20T21:46:39.411Z,18.60
2018-07-20T21:49:07.825Z,18.60
2018-07-20T21:51:36.571Z,18.60
2018-07-20T21:54:04.900Z,18.50
2018-07-20T21:56:33.264Z,18.50
2018-07-20T21:59:01.617Z,18.50
2018-07-20T22:01:29.992Z,18.40
2018-07-20T22:03:58.457Z,18.40
2018-07-20T22:08:54.896Z,18.30
2018-07-20T22:11:23.252Z,18.20
2018-07-20T22:13:51.597Z,18.20
2018-07-20T22:16:19.960Z,18.20
2018-07-20T22:21:16.419Z,18.10
2018-07-20T22:23:44.765Z,18.10
2018-07-20T22:26:13.120Z,18.00
2018-07-20T22:28:41.458Z,17.90
2018-07-20T22:31:09.836Z,17.90
2018-07-20T22:33:38.180Z,17.80
2018-07-20T22:36:06.583Z,17.80
2018-07-20T22:38:34.927Z,17.80
2018-07-20T22:41:03.311Z,17.80
2018-07-20T22:43:31.640Z,17.80
2018-07-20T22:45:59.991Z,17.70
2018-07-20T22:48:28.315Z,17.70
2018-07-20T22:50:56.692Z,17.70
2018-07-20T22:53:25.120Z,17.70
2018-07-20T22:55:53.497Z,17.60
2018-07-20T22:58:21.832Z,17.60
2018-07-20T23:00:50.201Z,17.60
2018-07-20T23:03:18.595Z,17.60
2018-07-20T23:05:46.958Z,17.50
2018-07-20T23:08:15.289Z,17.50
2018-07-20T23:10:43.649Z,17.50
2018-07-20T23:13:11.977Z,17.50
2018-07-20T23:15:40.346Z,17.50
2018-07-20T23:18:08.680Z,17.60
2018-07-20T23:20:37.054Z,17.60
2018-07-20T23:23:05.484Z,17.60
2018-07-20T23:25:33.851Z,17.60
2018-07-20T23:28:02.208Z,17.60
2018-07-20T23:30:30.607Z,17.60
2018-07-20T23:32:58.954Z,17.60
2018-07-20T23:35:27.295Z,17.60
2018-07-20T23:40:23.699Z,17.50
2018-07-20T23:42:52.051Z,17.50
2018-07-20T23:45:20.384Z,17.50
2018-07-20T23:47:48.740Z,17.50
2018-07-20T23:50:17.160Z,17.50
2018-07-20T23:55:13.611Z,17.50
2018-07-20T23:57:41.978Z,17.50
